Hauptseite
METAR-TAF:

METAR-TAF

Flughäfen :

Fliegerhorst Büchel

Büchel, Deutschland

Breite: 50-10N, Länge: 007-04E, Höhe: 478 m

Beobachtung

Neuester Wetterbericht von vor 39 Minuten, um 16:20 UTC
Wind 9 kt aus Nord
Temperatur 17°C
Luftfeuchtigkeit 55%
Luftdruck 1032 hPa
Sichtweite 10 km oder mehr

METAR: ETSB 251620Z AUTO 36009KT 9999 // ////// 17/08 Q1032 ///

Zeit: 18:59 (16:59 UTC)

Prognose

Neuester Wetterbericht von vor 6 Stunden und 39 Minuten, um 10:20 UTC
Gültige Prognose vom 25 um 11 UTC bis 25 um 20 UTC
Wind 10 kt aus Nord
Sichtweite 10 km oder mehr
Leicht bewölkt in der Höhe von 2500 ft
Durchbrochene Bewölkung in der Höhe von 6000 ft

TAF: ETSB 251020Z 2511/2520 35010KT 9999 NSW FEW025 BKN060 BY ETGL

Wetterbeobachtungen und Prognosen von mehr als 4000 Flughäfen (METAR und TAF Bericht).

Die verfügbaren Stationen werden durch gelbe und rote Markierungen auf der Karte dargestellt.

Führen Sie die Maus auf sie, um den Namen der Station zu sehen.

Darauf klicken, um die Beobachtung von Wetterbeobachtungen und Prognosen zu sehen.

Um die Karte zu ändern : klicken Sie auf den grünen Tasten mit einem schwarzen Kreuz Zum Vergrößern, auf den grünen Button mit einem Gedankenstrich zu verkleinern, oder auf die grünen Pfeile für benachbarte Karten.


METAR-TAF: